Time;durP1;ratioP1;P1;durP2;ratioP2;P2;SDS_P1;SDS_P2;PMS_P1;PMS_P2;Temp;Humidity;BMP_temperature;BMP_pressure;BME280_temperature;BME280_humidity;BME280_pressure;Samples;Min_cycle;Max_cycle;Signal;HPM_P1;HPM_P2
2024/01/28 00:02:04;;;;;;;;;;;;;;;9.64;73.18;101468.14;106157;1259;60446;-81
2024/01/28 00:04:38;;;;;;;;;;;;;;;9.64;73.18;101474.56;106070;1254;72971;-80
2024/01/28 00:07:12;;;;;;;;;;;;;;;9.59;73.22;101473.71;106023;1259;68795;-80
2024/01/28 00:09:41;;;;;;;;;;;;;;;9.47;74.30;101476.96;105882;1254;71462;-80
2024/01/28 00:12:15;;;;;;;;;;;;;;;9.47;74.50;101476.02;105996;1256;60559;-80
2024/01/28 00:14:49;;;;;;;;;;;;;;;9.30;75.58;101481.91;105874;1255;60405;-78
2024/01/28 00:17:23;;;;;;;;;;;;;;;9.27;76.17;101484.85;106020;1253;73899;-78
2024/01/28 00:19:50;;;;;;;;;;;;;;;9.36;75.54;101492.15;106196;1259;67264;-78
2024/01/28 00:22:24;;;;;;;;;;;;;;;9.37;75.25;101489.02;105945;1259;71428;-81
2024/01/28 00:24:58;;;;;;;;;;;;;;;9.24;76.01;101497.89;105981;1257;60551;-81
2024/01/28 00:27:26;;;;;;;;;;;;;;;9.30;75.82;101495.98;105800;1254;60550;-80
2024/01/28 00:29:55;;;;;;;;;;;;;;;9.34;75.41;101495.72;106122;1257;73858;-78
2024/01/28 00:32:29;;;;;;;;;;;;;;;9.43;74.59;101496.64;106425;1254;66910;-80
2024/01/28 00:35:04;;;;;;;;;;;;;;;9.24;75.75;101499.95;106438;1254;71387;-78
2024/01/28 00:37:31;;;;;;;;;;;;;;;9.12;76.92;101501.54;106436;1253;61134;-78
2024/01/28 00:40:06;;;;;;;;;;;;;;;9.08;77.15;101499.38;106590;1258;60309;-81
2024/01/28 00:42:39;;;;;;;;;;;;;;;9.04;77.54;101505.37;106482;1259;73825;-79
2024/01/28 00:45:13;;;;;;;;;;;;;;;9.07;77.24;101507.83;106353;1259;68482;-79
2024/01/28 00:47:43;;;;;;;;;;;;;;;9.17;76.77;101507.08;106434;1259;71608;-79
2024/01/28 00:50:16;;;;;;;;;;;;;;;9.24;76.25;101507.21;106561;1259;60518;-82
2024/01/28 00:52:51;;;;;;;;;;;;;;;9.38;75.13;101509.70;106474;1254;60607;-81
2024/01/28 00:55:24;;;;;;;;;;;;;;;9.36;74.98;101510.05;106269;1259;73866;-80
2024/01/28 00:57:52;;;;;;;;;;;;;;;9.35;74.96;101510.09;106545;1259;69104;-79
2024/01/28 01:00:27;;;;;;;;;;;;;;;9.34;74.97;101505.88;106500;1254;72152;-80
2024/01/28 01:03:01;;;;;;;;;;;;;;;9.28;75.35;101511.98;106589;1256;60989;-79
2024/01/28 01:05:34;;;;;;;;;;;;;;;9.27;75.38;101512.23;106437;1259;60552;-79
2024/01/28 01:08:02;;;;;;;;;;;;;;;9.39;74.73;101518.13;106485;1254;72628;-78
2024/01/28 01:10:36;;;;;;;;;;;;;;;9.31;75.06;101516.95;106541;1254;68428;-80
2024/01/28 01:13:09;;;;;;;;;;;;;;;9.26;75.73;101519.40;106649;1259;71756;-80
2024/01/28 01:15:37;;;;;;;;;;;;;;;9.34;75.56;101528.50;106430;1256;60350;-80
2024/01/28 01:18:11;;;;;;;;;;;;;;;9.23;75.88;101524.71;106423;1259;60671;-78
2024/01/28 01:20:45;;;;;;;;;;;;;;;9.24;76.44;101532.03;106568;1252;73961;-78
2024/01/28 01:23:19;;;;;;;;;;;;;;;9.24;76.41;101532.52;106515;1258;67452;-79
2024/01/28 01:25:46;;;;;;;;;;;;;;;9.26;76.53;101538.28;106501;1256;72670;-78
2024/01/28 01:28:20;;;;;;;;;;;;;;;9.27;76.47;101535.42;106498;1260;60571;-78
2024/01/28 01:30:54;;;;;;;;;;;;;;;9.33;76.20;101537.83;106483;1260;60497;-79
2024/01/28 01:33:28;;;;;;;;;;;;;;;9.32;76.46;101538.27;106454;1259;73938;-80
2024/01/28 01:35:56;;;;;;;;;;;;;;;9.48;75.34;101543.38;106468;1254;68885;-80
2024/01/28 01:38:30;;;;;;;;;;;;;;;9.48;75.10;101542.63;106432;1259;71443;-80
2024/01/28 01:41:04;;;;;;;;;;;;;;;9.34;75.94;101543.68;106434;1253;60917;-78
2024/01/28 01:43:37;;;;;;;;;;;;;;;9.31;76.86;101548.54;106542;1259;60413;-80
2024/01/28 01:46:05;;;;;;;;;;;;;;;9.38;76.27;101548.88;106479;1259;72233;-78
2024/01/28 01:48:39;;;;;;;;;;;;;;;9.35;76.41;101550.85;106603;1257;68539;-80
2024/01/28 01:51:13;;;;;;;;;;;;;;;9.39;76.17;101557.41;106286;1260;72773;-80
2024/01/28 01:53:41;;;;;;;;;;;;;;;9.31;76.77;101555.46;106668;1259;60329;-80
2024/01/28 01:56:15;;;;;;;;;;;;;;;9.38;76.91;101557.28;106404;1256;60330;-80
2024/01/28 01:58:49;;;;;;;;;;;;;;;9.46;76.27;101561.20;106486;1260;73882;-78
2024/01/28 02:01:23;;;;;;;;;;;;;;;9.52;75.61;101561.19;106359;1258;68433;-78
2024/01/28 02:03:51;;;;;;;;;;;;;;;9.47;75.82;101563.95;106514;1259;73520;-80
2024/01/28 02:06:26;;;;;;;;;;;;;;;9.45;76.00;101570.72;106632;1259;60490;-79
2024/01/28 02:08:59;;;;;;;;;;;;;;;9.49;75.70;101573.19;106318;1257;60422;-78
2024/01/28 09:09:53;;;;;;;;;;;;;;;10.73;66.00;102107.23;105909;1264;73070;-79
2024/01/28 09:12:26;;;;;;;;;;;;;;;10.74;65.60;102106.31;105347;1268;67452;-79
2024/01/28 09:14:54;;;;;;;;;;;;;;;10.84;65.17;102106.05;105493;1263;72678;-78
2024/01/28 09:17:21;;;;;;;;;;;;;;;10.90;65.00;102110.60;105669;1268;61365;-79
2024/01/28 09:19:49;;;;;;;;;;;;;;;10.92;65.43;102107.86;105529;1262;59867;-79
2024/01/28 09:22:23;;;;;;;;;;;;;;;10.98;65.12;102105.84;105457;1262;73578;-78
2024/01/28 09:24:50;;;;;;;;;;;;;;;10.95;64.31;102108.02;105306;1262;68395;-79
2024/01/28 09:27:24;;;;;;;;;;;;;;;10.93;64.14;102108.59;105425;1264;71447;-79
2024/01/28 09:29:58;;;;;;;;;;;;;;;10.90;64.07;102108.88;105443;1262;59768;-79
2024/01/28 09:32:26;;;;;;;;;;;;;;;10.87;63.97;102108.41;105339;1262;60732;-78
2024/01/28 09:34:53;;;;;;;;;;;;;;;10.74;64.39;102111.48;106097;1262;72978;-78
2024/01/28 09:37:27;;;;;;;;;;;;;;;10.71;65.39;102105.71;105246;1262;68700;-77
2024/01/28 09:39:55;;;;;;;;;;;;;;;10.77;65.18;102106.44;105430;1266;70629;-78
2024/01/28 09:42:23;;;;;;;;;;;;;;;10.79;65.19;102105.05;105494;1262;60923;-78
2024/01/28 09:44:51;;;;;;;;;;;;;;;10.91;64.72;102100.84;105368;1264;59273;-78
2024/01/28 09:47:25;;;;;;;;;;;;;;;10.94;64.39;102099.65;105881;1261;72085;-78
2024/01/28 09:49:52;;;;;;;;;;;;;;;11.06;64.39;102098.74;105499;1262;68698;-79
2024/01/28 09:52:27;;;;;;;;;;;;;;;11.14;63.11;102100.65;105481;1263;72933;-79
2024/01/28 09:55:00;;;;;;;;;;;;;;;11.08;62.86;102102.73;105424;1262;59781;-79
2024/01/28 09:57:34;;;;;;;;;;;;;;;11.03;63.35;102101.30;105499;1262;60290;-78
2024/01/28 10:00:02;;;;;;;;;;;;;;;11.05;63.79;102105.39;105335;1267;71863;-78
2024/01/28 10:02:43;;;;;;;;;;;;;;;11.13;63.84;102106.97;105509;1262;68387;-79
2024/01/28 10:05:18;;;;;;;;;;;;;;;11.28;63.05;102108.70;105426;1262;72698;-79
2024/01/28 10:07:58;;;;;;;;;;;;;;;11.34;62.22;102112.20;106143;1262;59723;-78
2024/01/28 10:10:26;;;;;;;;;;;;;;;11.35;61.66;102110.52;105319;1267;59782;-79
2024/01/28 10:13:00;;;;;;;;;;;;;;;11.35;61.12;102111.13;105603;1262;73445;-79
2024/01/28 10:15:40;;;;;;;;;;;;;;;11.10;61.88;102113.38;105471;1263;67115;-78
2024/01/28 10:18:14;;;;;;;;;;;;;;;11.05;62.00;102113.37;105545;1262;72740;-79
2024/01/28 10:20:42;;;;;;;;;;;;;;;11.11;61.48;102117.56;105335;1262;61368;-78
2024/01/28 10:23:16;;;;;;;;;;;;;;;11.12;60.84;102119.86;105472;1264;59898;-79
2024/01/28 10:26:00;;;;;;;;;;;;;;;11.00;60.96;102124.87;105357;1263;73341;-79
2024/01/28 10:28:29;;;;;;;;;;;;;;;10.99;61.35;102126.83;105478;1262;68421;-78
2024/01/28 10:31:03;;;;;;;;;;;;;;;10.92;61.52;102129.73;105540;1263;71207;-79
2024/01/28 10:33:43;;;;;;;;;;;;;;;10.95;61.35;102131.94;105911;1267;59656;-77
2024/01/28 10:36:17;;;;;;;;;;;;;;;11.03;61.10;102130.06;105683;1262;59715;-78
2024/01/28 10:38:45;;;;;;;;;;;;;;;11.03;61.67;102132.70;105621;1262;73483;-78
2024/01/28 10:41:18;;;;;;;;;;;;;;;11.09;61.30;102134.15;105596;1262;67335;-78
2024/01/28 10:44:19;;;;;;;;;;;;;;;11.02;61.42;102133.56;105560;1263;72660;-78
2024/01/28 10:46:59;;;;;;;;;;;;;;;11.07;61.39;102133.64;105266;1268;59699;-78
2024/01/28 10:49:35;;;;;;;;;;;;;;;11.14;61.11;102136.66;105359;1268;59335;-79
2024/01/28 10:52:09;;;;;;;;;;;;;;;11.15;60.84;102138.44;105361;1262;73030;-79
2024/01/28 10:54:49;;;;;;;;;;;;;;;11.23;60.14;102137.94;105669;1262;68415;-78
2024/01/28 10:57:29;;;;;;;;;;;;;;;11.10;61.00;102142.70;105978;1262;72689;-78
2024/01/28 10:59:57;;;;;;;;;;;;;;;11.11;61.18;102148.46;106421;1267;60694;-78
2024/01/28 11:02:36;;;;;;;;;;;;;;;11.00;61.74;102152.93;106293;1262;59901;-79
2024/01/28 11:05:16;;;;;;;;;;;;;;;10.85;63.22;102153.60;105722;1262;71178;-79
2024/01/28 11:07:59;;;;;;;;;;;;;;;10.80;62.53;102159.98;106359;1264;67591;-80
2024/01/28 11:10:28;;;;;;;;;;;;;;;10.73;62.62;102164.60;106274;1263;73789;-80
2024/01/28 11:13:02;;;;;;;;;;;;;;;10.66;63.10;102168.59;106195;1263;59640;-80
2024/01/28 11:15:36;;;;;;;;;;;;;;;10.67;63.62;102167.69;106241;1263;59620;-79
2024/01/28 11:18:10;;;;;;;;;;;;;;;10.69;63.51;102164.57;105981;1262;73522;-80
2024/01/28 11:20:39;;;;;;;;;;;;;;;10.70;63.05;102165.29;105939;1263;68582;-78
2024/01/28 11:23:19;;;;;;;;;;;;;;;10.69;62.82;102161.98;106018;1266;74865;-80
2024/01/28 11:25:53;;;;;;;;;;;;;;;10.80;63.21;102162.52;106140;1263;61997;-80
2024/01/28 11:28:28;;;;;;;;;;;;;;;10.91;62.50;102159.41;106202;1257;59774;-79
2024/01/28 11:30:57;;;;;;;;;;;;;;;10.92;62.37;102161.89;106576;1256;72183;-79
2024/01/28 11:33:33;;;;;;;;;;;;;;;10.95;62.60;102164.14;106631;1258;68590;-79
2024/01/28 11:36:07;;;;;;;;;;;;;;;11.13;62.65;102165.52;106382;1260;74043;-80
2024/01/28 11:38:41;;;;;;;;;;;;;;;11.18;62.46;102166.84;106328;1263;59832;-79
2024/01/28 11:41:10;;;;;;;;;;;;;;;11.17;62.30;102167.74;106513;1252;60271;-80
2024/01/28 11:43:44;;;;;;;;;;;;;;;11.12;61.27;102169.95;106817;1256;73006;-79
2024/01/28 11:46:24;;;;;;;;;;;;;;;11.09;60.78;102169.98;106505;1258;70829;-79
2024/01/28 11:48:52;;;;;;;;;;;;;;;11.07;60.87;102169.34;106585;1253;74832;-80
2024/01/28 11:51:31;;;;;;;;;;;;;;;11.01;60.73;102174.95;106492;1258;61622;-79
2024/01/28 11:54:05;;;;;;;;;;;;;;;10.96;60.97;102176.81;106714;1253;61646;-79
2024/01/28 11:56:39;;;;;;;;;;;;;;;11.03;60.76;102176.56;106939;1253;75224;-79
2024/01/28 11:59:09;;;;;;;;;;;;;;;11.06;60.39;102180.69;106421;1258;68699;-79
2024/01/28 12:01:43;;;;;;;;;;;;;;;10.92;60.89;102180.23;106625;1256;75066;-79
2024/01/28 12:04:17;;;;;;;;;;;;;;;10.94;60.75;102184.15;106974;1254;59731;-80
2024/01/28 12:06:50;;;;;;;;;;;;;;;10.82;60.79;102191.61;106469;1258;59689;-79
2024/01/28 12:09:18;;;;;;;;;;;;;;;10.72;61.02;102197.77;106740;1255;73045;-79
2024/01/28 12:11:52;;;;;;;;;;;;;;;10.65;61.18;102196.83;106592;1253;68193;-79
2024/01/28 12:14:32;;;;;;;;;;;;;;;10.51;61.79;102199.14;106482;1253;72641;-79
2024/01/28 12:17:00;;;;;;;;;;;;;;;10.51;61.99;102198.96;106449;1256;61963;-80
2024/01/28 12:19:31;;;;;;;;;;;;;;;10.53;62.40;102205.29;106633;1259;61859;-80
2024/01/28 12:22:04;;;;;;;;;;;;;;;10.53;62.33;102207.85;106559;1257;73103;-79
2024/01/28 12:24:44;;;;;;;;;;;;;;;10.54;61.44;102211.65;106542;1259;68090;-80
2024/01/28 12:27:12;;;;;;;;;;;;;;;10.46;62.22;102216.29;106797;1254;74899;-79
2024/01/28 12:29:45;;;;;;;;;;;;;;;10.46;62.90;102218.30;106373;1258;60646;-79
2024/01/28 12:32:25;;;;;;;;;;;;;;;10.44;63.00;102217.97;106703;1253;60555;-79
2024/01/28 12:35:03;;;;;;;;;;;;;;;10.46;63.18;102224.53;106588;1256;72434;-79
2024/01/28 12:37:31;;;;;;;;;;;;;;;10.51;62.98;102224.75;106670;1253;67098;-79
2024/01/28 12:40:06;;;;;;;;;;;;;;;10.56;62.84;102228.65;106401;1254;74729;-79
2024/01/28 12:42:45;;;;;;;;;;;;;;;10.60;62.35;102230.90;106244;1256;60416;-80
2024/01/28 12:45:21;;;;;;;;;;;;;;;10.61;62.53;102233.54;106441;1258;60359;-80
2024/01/28 12:47:48;;;;;;;;;;;;;;;10.56;62.64;102235.14;106335;1255;73844;-80
2024/01/28 12:50:22;;;;;;;;;;;;;;;10.56;62.15;102234.34;106511;1256;68399;-79
2024/01/28 12:52:56;;;;;;;;;;;;;;;10.47;62.45;102237.29;106734;1253;72651;-79
2024/01/28 12:55:23;;;;;;;;;;;;;;;10.34;62.54;102240.41;106378;1253;60591;-79
2024/01/28 12:57:57;;;;;;;;;;;;;;;10.39;62.38;102239.16;106484;1253;60889;-80
2024/01/28 13:00:37;;;;;;;;;;;;;;;10.39;62.80;102235.92;106441;1253;74240;-80
2024/01/28 13:03:17;;;;;;;;;;;;;;;10.42;62.93;102238.97;106796;1253;68356;-80
2024/01/28 13:05:51;;;;;;;;;;;;;;;10.45;62.34;102243.27;106724;1258;72748;-80
2024/01/28 13:08:30;;;;;;;;;;;;;;;10.33;62.72;102245.66;106674;1253;61413;-80
2024/01/28 13:11:10;;;;;;;;;;;;;;;10.28;63.12;102249.97;106765;1257;60446;-79
2024/01/28 13:13:50;;;;;;;;;;;;;;;10.32;62.85;102252.67;106638;1253;76151;-79
2024/01/28 13:16:17;;;;;;;;;;;;;;;10.25;63.02;102259.94;106681;1258;67162;-79
2024/01/28 13:18:57;;;;;;;;;;;;;;;10.30;63.17;102264.17;106687;1255;73545;-80
2024/01/28 13:21:37;;;;;;;;;;;;;;;10.33;62.60;102268.45;106472;1253;61510;-79
2024/01/28 13:24:11;;;;;;;;;;;;;;;10.30;62.41;102274.59;106949;1253;60646;-79
2024/01/28 13:26:44;;;;;;;;;;;;;;;10.32;62.19;102276.63;106506;1253;74246;-79
2024/01/28 13:29:25;;;;;;;;;;;;;;;10.32;62.43;102279.69;106777;1253;70154;-79
2024/01/28 13:32:05;;;;;;;;;;;;;;;10.36;62.38;102278.59;107267;1256;73563;-80
2024/01/28 13:34:38;;;;;;;;;;;;;;;10.26;62.93;102283.34;106390;1256;61436;-79
2024/01/28 13:37:12;;;;;;;;;;;;;;;10.21;63.32;102285.18;106799;1257;60460;-79
2024/01/28 13:39:52;;;;;;;;;;;;;;;10.23;63.12;102288.28;106597;1258;75909;-79
2024/01/28 13:42:29;;;;;;;;;;;;;;;10.26;63.22;102287.54;106439;1259;67341;-79
2024/01/28 13:45:03;;;;;;;;;;;;;;;10.31;62.91;102285.30;106553;1257;72634;-80
2024/01/28 13:47:30;;;;;;;;;;;;;;;10.25;63.12;102290.97;106585;1254;60487;-79
2024/01/28 13:50:05;;;;;;;;;;;;;;;10.16;63.75;102300.56;106368;1253;60448;-79
2024/01/28 13:52:39;;;;;;;;;;;;;;;10.10;64.18;102298.65;106765;1259;75660;-80
2024/01/28 13:55:13;;;;;;;;;;;;;;;10.14;64.13;102303.50;106560;1253;71137;-79
2024/01/28 13:57:40;;;;;;;;;;;;;;;10.21;63.52;102305.06;106642;1257;72681;-80
2024/01/28 14:00:14;;;;;;;;;;;;;;;10.20;63.56;102309.07;106505;1258;60488;-80
2024/01/28 14:02:49;;;;;;;;;;;;;;;10.13;63.17;102314.31;106666;1258;59055;-79
2024/01/28 14:05:17;;;;;;;;;;;;;;;10.15;62.90;102316.69;106848;1253;73803;-80
2024/01/28 14:07:51;;;;;;;;;;;;;;;10.08;62.96;102322.53;106657;1259;70226;-79
2024/01/28 14:10:24;;;;;;;;;;;;;;;10.10;62.96;102328.27;106853;1253;73172;-79
2024/01/28 14:12:58;;;;;;;;;;;;;;;10.10;62.72;102331.48;106895;1253;63150;-80
2024/01/28 14:15:25;;;;;;;;;;;;;;;10.16;62.18;102331.26;106732;1259;62113;-79
2024/01/28 14:17:59;;;;;;;;;;;;;;;10.09;62.15;102331.77;106508;1253;76038;-79
2024/01/28 14:20:33;;;;;;;;;;;;;;;10.13;61.65;102334.50;106697;1253;69364;-78
2024/01/28 14:23:07;;;;;;;;;;;;;;;10.16;61.57;102336.98;106595;1259;73632;-79
2024/01/28 14:25:40;;;;;;;;;;;;;;;10.13;61.38;102338.06;106570;1253;60560;-79
2024/01/28 14:28:14;;;;;;;;;;;;;;;10.17;61.21;102333.47;106784;1253;60681;-79
2024/01/28 14:30:54;;;;;;;;;;;;;;;10.11;60.95;102340.86;106537;1253;75925;-79
2024/01/28 14:33:21;;;;;;;;;;;;;;;10.01;60.81;102337.22;106481;1259;70816;-78
2024/01/28 14:35:54;;;;;;;;;;;;;;;10.02;60.41;102340.82;105876;1258;75407;-78
2024/01/28 14:38:28;;;;;;;;;;;;;;;9.99;60.10;102342.87;106026;1256;60481;-78
2024/01/28 14:41:01;;;;;;;;;;;;;;;10.01;60.17;102346.23;106104;1254;61879;-78
2024/01/28 14:43:29;;;;;;;;;;;;;;;10.02;59.58;102347.95;106782;1253;76157;-78
2024/01/28 14:46:02;;;;;;;;;;;;;;;10.07;59.32;102353.06;106447;1259;70771;-78
2024/01/28 14:48:43;;;;;;;;;;;;;;;10.08;59.31;102354.52;106085;1259;72744;-78
2024/01/28 14:51:17;;;;;;;;;;;;;;;10.04;59.20;102361.63;106152;1257;61511;-78
2024/01/28 14:53:45;;;;;;;;;;;;;;;9.92;59.41;102365.31;107516;1253;61815;-78
2024/01/28 14:56:18;;;;;;;;;;;;;;;9.87;59.91;102365.39;106581;1254;72591;-78
2024/01/28 14:58:58;;;;;;;;;;;;;;;9.72;60.32;102371.88;106108;1253;69090;-78
2024/01/28 15:01:26;;;;;;;;;;;;;;;9.57;61.04;102370.02;106035;1258;71443;-78
2024/01/28 15:04:00;;;;;;;;;;;;;;;9.56;61.27;102372.05;105930;1258;63418;-78
2024/01/28 15:06:40;;;;;;;;;;;;;;;9.57;61.11;102379.25;106064;1258;60587;-78
2024/01/28 15:09:20;;;;;;;;;;;;;;;9.56;61.26;102379.47;106182;1259;76027;-78
2024/01/28 15:11:53;;;;;;;;;;;;;;;9.62;61.08;102380.84;105981;1258;68470;-78
2024/01/28 15:14:33;;;;;;;;;;;;;;;9.59;61.22;102383.35;106047;1254;74876;-78
2024/01/28 15:17:14;;;;;;;;;;;;;;;9.67;61.05;102390.04;106249;1258;61603;-78
2024/01/28 15:19:53;;;;;;;;;;;;;;;9.69;60.93;102389.62;105892;1261;60723;-79
2024/01/28 15:22:23;;;;;;;;;;;;;;;9.91;59.80;102394.16;107000;1253;74196;-78
2024/01/28 15:25:04;;;;;;;;;;;;;;;9.90;59.67;102395.86;105973;1261;67356;-78
2024/01/28 15:27:44;;;;;;;;;;;;;;;10.07;58.89;102399.88;106057;1258;73808;-78
2024/01/28 15:30:24;;;;;;;;;;;;;;;10.16;57.99;102401.75;105941;1259;62591;-78
2024/01/28 15:32:52;;;;;;;;;;;;;;;10.14;57.61;102403.98;106182;1259;60722;-78
2024/01/28 15:35:32;;;;;;;;;;;;;;;10.04;57.75;102406.59;106004;1258;75731;-78
2024/01/28 15:38:11;;;;;;;;;;;;;;;9.83;58.55;102405.94;105933;1257;69564;-79
2024/01/28 15:40:51;;;;;;;;;;;;;;;9.75;58.91;102407.80;105843;1261;74775;-77
2024/01/28 15:43:19;;;;;;;;;;;;;;;9.76;59.14;102403.38;106330;1254;60590;-77
2024/01/28 15:46:01;;;;;;;;;;;;;;;9.75;59.18;102405.16;106110;1259;60525;-78
2024/01/28 15:48:41;;;;;;;;;;;;;;;9.79;59.08;102414.73;106193;1259;75966;-78
2024/01/28 15:51:21;;;;;;;;;;;;;;;10.06;58.03;102415.87;106093;1258;70901;-78
2024/01/28 15:53:55;;;;;;;;;;;;;;;9.97;58.44;102416.46;105970;1254;71468;-78
2024/01/28 15:56:29;;;;;;;;;;;;;;;10.15;57.85;102420.52;105943;1263;60456;-78
2024/01/28 15:59:08;;;;;;;;;;;;;;;10.34;57.05;102419.49;105959;1254;61754;-79
2024/01/28 16:01:48;;;;;;;;;;;;;;;10.20;57.34;102422.38;106891;1258;75689;-78
2024/01/28 16:04:16;;;;;;;;;;;;;;;10.29;57.02;102422.75;106275;1258;68774;-78
2024/01/28 16:06:56;;;;;;;;;;;;;;;10.36;57.00;102426.83;106238;1259;73319;-78
2024/01/28 16:09:30;;;;;;;;;;;;;;;10.41;56.65;102431.13;106360;1259;60789;-78
2024/01/28 16:12:21;;;;;;;;;;;;;;;10.35;56.82;102433.41;106010;1259;61914;-79
2024/01/28 16:14:49;;;;;;;;;;;;;;;10.30;56.57;102439.49;106223;1256;72687;-79
2024/01/28 16:17:23;;;;;;;;;;;;;;;10.33;56.50;102443.42;106186;1259;70763;-79
2024/01/28 16:19:57;;;;;;;;;;;;;;;10.35;56.52;102446.48;106644;1259;71460;-78
2024/01/28 16:22:31;;;;;;;;;;;;;;;10.32;56.48;102447.65;106652;1259;61527;-79
2024/01/28 16:25:06;;;;;;;;;;;;;;;10.42;56.19;102445.14;106588;1258;60598;-80
2024/01/28 16:27:40;;;;;;;;;;;;;;;10.44;56.32;102442.67;107222;1259;76096;-79
2024/01/28 16:30:14;;;;;;;;;;;;;;;10.41;56.23;102447.98;106581;1258;68924;-78
2024/01/28 16:32:48;;;;;;;;;;;;;;;10.43;56.18;102453.48;106629;1259;73317;-79
2024/01/28 16:35:21;;;;;;;;;;;;;;;10.44;55.87;102461.54;106590;1255;60591;-79
2024/01/28 16:37:50;;;;;;;;;;;;;;;10.45;55.95;102465.11;106638;1267;60372;-79
2024/01/28 16:40:30;;;;;;;;;;;;;;;10.31;56.26;102472.70;106664;1266;76015;-79
2024/01/28 16:42:58;;;;;;;;;;;;;;;10.27;56.39;102475.17;106600;1256;68396;-78
2024/01/28 16:45:31;;;;;;;;;;;;;;;10.25;56.49;102480.59;106551;1259;75234;-79
2024/01/28 16:48:05;;;;;;;;;;;;;;;10.16;57.11;102483.65;106557;1260;61513;-79
2024/01/28 16:50:40;;;;;;;;;;;;;;;10.28;56.78;102483.41;106486;1253;60951;-79
2024/01/28 16:53:14;;;;;;;;;;;;;;;10.22;56.86;102487.25;106638;1260;76348;-79
2024/01/28 16:55:48;;;;;;;;;;;;;;;10.18;56.99;102488.30;106702;1260;69777;-79
2024/01/28 16:58:22;;;;;;;;;;;;;;;10.18;56.74;102489.73;106822;1260;73144;-79
2024/01/28 17:00:57;;;;;;;;;;;;;;;10.07;56.95;102490.10;106708;1254;61335;-79
2024/01/28 17:03:31;;;;;;;;;;;;;;;10.12;56.89;102498.63;106622;1254;60940;-79
2024/01/28 17:05:59;;;;;;;;;;;;;;;10.06;57.14;102498.59;106503;1260;75208;-79
2024/01/28 17:08:39;;;;;;;;;;;;;;;9.49;58.65;102500.24;106428;1257;70879;-79
2024/01/28 17:11:13;;;;;;;;;;;;;;;9.73;58.40;102505.50;106317;1264;74661;-79
2024/01/28 17:13:41;;;;;;;;;;;;;;;10.08;57.48;102510.19;106638;1259;60326;-79
2024/01/28 17:16:14;;;;;;;;;;;;;;;10.05;57.05;102513.89;106809;1258;61151;-79
2024/01/28 17:18:48;;;;;;;;;;;;;;;9.98;56.95;102514.44;106386;1254;73807;-79
2024/01/28 17:21:22;;;;;;;;;;;;;;;9.99;56.86;102522.56;106519;1259;69656;-79
2024/01/28 17:23:56;;;;;;;;;;;;;;;9.95;56.59;102523.30;106406;1259;74889;-79
2024/01/28 17:26:30;;;;;;;;;;;;;;;9.82;56.84;102528.91;106678;1256;61448;-79
2024/01/28 17:29:03;;;;;;;;;;;;;;;9.82;57.22;102529.50;106901;1254;61785;-79
2024/01/28 17:31:37;;;;;;;;;;;;;;;9.80;57.06;102531.20;106412;1260;74288;-79
2024/01/28 17:34:05;;;;;;;;;;;;;;;9.69;57.32;102533.39;106608;1258;68459;-79
2024/01/28 17:36:49;;;;;;;;;;;;;;;9.66;57.65;102534.60;106485;1256;73875;-79
2024/01/28 17:39:17;;;;;;;;;;;;;;;9.55;57.91;102534.35;106726;1262;61525;-79
2024/01/28 17:41:51;;;;;;;;;;;;;;;9.44;57.95;102537.61;106597;1254;61882;-79
2024/01/28 17:44:24;;;;;;;;;;;;;;;9.35;58.54;102543.51;106573;1257;76099;-79
2024/01/28 17:46:58;;;;;;;;;;;;;;;9.51;58.27;102543.06;106660;1257;68344;-79
2024/01/28 17:49:32;;;;;;;;;;;;;;;9.67;57.56;102549.81;106796;1259;74858;-79
2024/01/28 17:52:07;;;;;;;;;;;;;;;9.59;57.69;102547.80;107299;1258;60485;-79
2024/01/28 17:54:41;;;;;;;;;;;;;;;9.68;57.35;102549.31;107139;1257;60797;-79
2024/01/28 17:57:15;;;;;;;;;;;;;;;9.64;57.67;102551.70;106770;1254;75791;-79
2024/01/28 17:59:49;;;;;;;;;;;;;;;9.69;57.40;102550.65;106793;1253;73434;-79
2024/01/28 18:02:23;;;;;;;;;;;;;;;9.63;57.58;102552.09;106841;1254;74068;-79
2024/01/28 18:04:57;;;;;;;;;;;;;;;9.61;57.68;102556.67;106743;1254;61568;-79
2024/01/28 18:07:25;;;;;;;;;;;;;;;9.64;57.53;102559.93;106686;1258;60937;-79
2024/01/28 18:10:00;;;;;;;;;;;;;;;9.56;57.86;102561.80;106724;1254;74775;-79
2024/01/28 18:12:33;;;;;;;;;;;;;;;9.59;57.71;102562.88;106856;1254;71190;-79
2024/01/28 18:15:07;;;;;;;;;;;;;;;9.55;57.89;102563.61;106767;1264;74771;-79
2024/01/28 18:17:41;;;;;;;;;;;;;;;9.59;57.55;102568.83;106720;1254;60833;-79
2024/01/28 18:20:15;;;;;;;;;;;;;;;9.80;56.91;102570.40;107016;1259;60730;-80
2024/01/28 18:22:49;;;;;;;;;;;;;;;9.96;56.36;102570.85;106869;1254;75841;-80
2024/01/28 18:25:24;;;;;;;;;;;;;;;9.89;56.08;102571.74;106766;1257;69341;-79
2024/01/28 18:27:59;;;;;;;;;;;;;;;9.77;56.67;102568.27;106847;1260;72289;-79
2024/01/28 18:30:33;;;;;;;;;;;;;;;9.63;57.38;102570.44;106479;1254;60483;-80
2024/01/28 18:33:07;;;;;;;;;;;;;;;9.60;57.61;102573.40;106801;1253;61878;-80
2024/01/28 18:35:34;;;;;;;;;;;;;;;9.45;58.42;102580.67;106970;1257;75546;-80
2024/01/28 18:38:10;;;;;;;;;;;;;;;9.21;59.29;102580.70;106761;1254;71506;-80
2024/01/28 18:40:43;;;;;;;;;;;;;;;9.08;60.28;102579.04;106742;1255;74805;-80
2024/01/28 18:43:17;;;;;;;;;;;;;;;9.16;60.35;102576.11;106749;1254;60682;-80
2024/01/28 18:45:51;;;;;;;;;;;;;;;9.29;59.90;102579.90;106735;1256;62117;-80
2024/01/28 18:48:25;;;;;;;;;;;;;;;9.20;60.29;102585.04;106514;1254;74797;-80
2024/01/28 18:50:59;;;;;;;;;;;;;;;9.26;60.23;102586.09;107009;1255;69418;-80
2024/01/28 18:53:35;;;;;;;;;;;;;;;9.44;59.38;102584.30;106811;1257;73522;-80
2024/01/28 18:56:11;;;;;;;;;;;;;;;9.33;59.82;102587.68;107399;1254;61604;-80
2024/01/28 18:58:44;;;;;;;;;;;;;;;9.34;59.88;102590.95;106619;1257;60957;-80
2024/01/28 19:01:19;;;;;;;;;;;;;;;9.36;60.03;102590.36;106726;1254;75353;-80
2024/01/28 19:03:47;;;;;;;;;;;;;;;9.41;59.84;102590.98;106565;1254;70972;-80
2024/01/28 19:06:21;;;;;;;;;;;;;;;9.40;59.88;102590.27;106514;1254;74706;-80
2024/01/28 19:08:56;;;;;;;;;;;;;;;9.36;60.01;102590.56;106671;1261;60540;-80
2024/01/28 19:11:30;;;;;;;;;;;;;;;9.46;59.87;102588.87;106740;1252;61771;-80
2024/01/28 19:14:05;;;;;;;;;;;;;;;9.61;59.21;102588.98;106864;1254;75943;-80
2024/01/28 19:16:39;;;;;;;;;;;;;;;9.72;58.70;102588.98;106669;1254;69766;-80
2024/01/28 19:19:16;;;;;;;;;;;;;;;9.61;58.83;102592.20;106765;1254;74891;-80
2024/01/28 19:21:50;;;;;;;;;;;;;;;9.43;59.59;102595.89;106688;1260;60452;-80
2024/01/28 19:24:24;;;;;;;;;;;;;;;9.41;59.82;102600.69;106683;1253;60780;-80
2024/01/28 19:26:57;;;;;;;;;;;;;;;9.44;59.78;102600.84;106707;1259;74553;-80
2024/01/28 19:29:25;;;;;;;;;;;;;;;9.21;60.72;102602.61;106999;1254;72340;-80
2024/01/28 19:32:05;;;;;;;;;;;;;;;9.18;61.17;102603.92;106500;1260;74841;-79
2024/01/28 19:34:38;;;;;;;;;;;;;;;9.19;61.29;102610.21;106564;1257;61535;-80
2024/01/28 19:37:12;;;;;;;;;;;;;;;9.25;61.08;102612.06;106627;1254;60808;-80
2024/01/28 19:39:52;;;;;;;;;;;;;;;9.33;60.56;102614.21;106467;1256;75107;-79
2024/01/28 19:42:32;;;;;;;;;;;;;;;9.30;60.46;102616.74;106567;1257;70449;-79
2024/01/28 19:45:07;;;;;;;;;;;;;;;8.80;62.16;102623.27;106681;1255;73747;-79
2024/01/28 19:47:41;;;;;;;;;;;;;;;8.71;63.38;102628.17;106507;1257;61350;-79
2024/01/28 19:50:21;;;;;;;;;;;;;;;8.73;63.52;102632.83;106969;1254;61968;-79
2024/01/28 19:53:01;;;;;;;;;;;;;;;8.88;63.09;102629.67;106510;1254;76201;-79
2024/01/28 19:55:35;;;;;;;;;;;;;;;9.01;62.40;102629.09;107014;1254;69810;-79
2024/01/28 19:58:11;;;;;;;;;;;;;;;9.05;62.02;102629.66;106513;1258;72768;-79
2024/01/28 20:00:51;;;;;;;;;;;;;;;9.10;61.92;102628.09;106428;1257;61537;-79
2024/01/28 20:03:31;;;;;;;;;;;;;;;9.28;61.01;102624.98;106621;1254;60891;-79